sensor_id;sensor_type;location;lat;lon;timestamp;P1;durP1;ratioP1;P2;durP2;ratioP2
13981;SDS011;7065;50.880;5.502;2023-02-27T00:01:32;6.00;;;2.58;;
13981;SDS011;7065;50.880;5.502;2023-02-27T00:03:59;2.80;;;1.60;;
13981;SDS011;7065;50.880;5.502;2023-02-27T00:06:25;5.70;;;1.98;;
13981;SDS011;7065;50.880;5.502;2023-02-27T00:08:51;4.43;;;2.70;;
13981;SDS011;7065;50.880;5.502;2023-02-27T00:11:17;4.68;;;2.25;;
13981;SDS011;7065;50.880;5.502;2023-02-27T00:13:43;6.22;;;2.20;;
13981;SDS011;7065;50.880;5.502;2023-02-27T00:16:09;5.25;;;2.42;;
13981;SDS011;7065;50.880;5.502;2023-02-27T00:18:35;5.25;;;2.30;;
13981;SDS011;7065;50.880;5.502;2023-02-27T00:21:01;5.53;;;2.75;;
13981;SDS011;7065;50.880;5.502;2023-02-27T00:23:27;8.90;;;2.10;;
13981;SDS011;7065;50.880;5.502;2023-02-27T00:25:53;4.55;;;2.28;;
13981;SDS011;7065;50.880;5.502;2023-02-27T00:28:19;4.55;;;1.90;;
13981;SDS011;7065;50.880;5.502;2023-02-27T00:30:46;4.75;;;1.90;;
13981;SDS011;7065;50.880;5.502;2023-02-27T00:33:11;5.10;;;1.73;;
13981;SDS011;7065;50.880;5.502;2023-02-27T00:35:37;3.33;;;1.63;;
13981;SDS011;7065;50.880;5.502;2023-02-27T00:38:03;4.82;;;1.77;;
13981;SDS011;7065;50.880;5.502;2023-02-27T00:40:29;4.20;;;2.05;;
13981;SDS011;7065;50.880;5.502;2023-02-27T00:42:55;5.28;;;2.17;;
13981;SDS011;7065;50.880;5.502;2023-02-27T00:45:21;3.28;;;1.40;;
13981;SDS011;7065;50.880;5.502;2023-02-27T00:47:47;3.90;;;1.88;;
13981;SDS011;7065;50.880;5.502;2023-02-27T00:50:12;4.43;;;1.80;;
13981;SDS011;7065;50.880;5.502;2023-02-27T00:52:38;6.82;;;1.85;;
13981;SDS011;7065;50.880;5.502;2023-02-27T00:55:04;4.07;;;1.77;;
13981;SDS011;7065;50.880;5.502;2023-02-27T00:57:31;6.03;;;2.08;;
13981;SDS011;7065;50.880;5.502;2023-02-27T00:59:57;4.00;;;1.77;;
13981;SDS011;7065;50.880;5.502;2023-02-27T01:02:23;3.10;;;1.50;;
13981;SDS011;7065;50.880;5.502;2023-02-27T01:04:49;4.32;;;2.22;;
13981;SDS011;7065;50.880;5.502;2023-02-27T01:07:15;3.97;;;2.17;;
13981;SDS011;7065;50.880;5.502;2023-02-27T01:09:40;4.45;;;2.00;;
13981;SDS011;7065;50.880;5.502;2023-02-27T01:12:06;5.75;;;2.05;;
13981;SDS011;7065;50.880;5.502;2023-02-27T01:14:32;3.22;;;1.75;;
13981;SDS011;7065;50.880;5.502;2023-02-27T01:16:59;3.42;;;1.70;;
13981;SDS011;7065;50.880;5.502;2023-02-27T01:19:25;3.50;;;2.00;;
13981;SDS011;7065;50.880;5.502;2023-02-27T01:21:51;3.72;;;2.00;;
13981;SDS011;7065;50.880;5.502;2023-02-27T01:24:17;3.97;;;1.92;;
13981;SDS011;7065;50.880;5.502;2023-02-27T01:26:43;4.97;;;2.15;;
13981;SDS011;7065;50.880;5.502;2023-02-27T01:29:09;4.03;;;1.67;;
13981;SDS011;7065;50.880;5.502;2023-02-27T01:31:35;3.22;;;2.30;;
13981;SDS011;7065;50.880;5.502;2023-02-27T01:34:01;5.47;;;1.83;;
13981;SDS011;7065;50.880;5.502;2023-02-27T01:36:27;2.58;;;2.00;;
13981;SDS011;7065;50.880;5.502;2023-02-27T01:38:53;4.25;;;2.00;;
13981;SDS011;7065;50.880;5.502;2023-02-27T01:41:18;3.67;;;1.88;;
13981;SDS011;7065;50.880;5.502;2023-02-27T01:46:41;3.28;;;1.90;;
13981;SDS011;7065;50.880;5.502;2023-02-27T01:49:20;5.70;;;2.17;;
13981;SDS011;7065;50.880;5.502;2023-02-27T01:51:54;4.45;;;2.03;;
13981;SDS011;7065;50.880;5.502;2023-02-27T01:54:31;4.30;;;2.40;;
13981;SDS011;7065;50.880;5.502;2023-02-27T01:57:01;4.18;;;2.47;;
13981;SDS011;7065;50.880;5.502;2023-02-27T01:59:30;4.55;;;2.05;;
13981;SDS011;7065;50.880;5.502;2023-02-27T02:01:57;7.40;;;2.25;;
13981;SDS011;7065;50.880;5.502;2023-02-27T02:04:32;3.60;;;1.80;;
13981;SDS011;7065;50.880;5.502;2023-02-27T02:07:04;4.78;;;1.92;;
13981;SDS011;7065;50.880;5.502;2023-02-27T02:09:36;6.93;;;1.67;;
13981;SDS011;7065;50.880;5.502;2023-02-27T02:12:06;4.63;;;2.05;;
13981;SDS011;7065;50.880;5.502;2023-02-27T02:14:33;3.83;;;1.42;;
13981;SDS011;7065;50.880;5.502;2023-02-27T02:19:59;5.85;;;1.92;;
13981;SDS011;7065;50.880;5.502;2023-02-27T02:28:42;2.92;;;2.22;;
13981;SDS011;7065;50.880;5.502;2023-02-27T02:43:29;6.63;;;2.88;;
13981;SDS011;7065;50.880;5.502;2023-02-27T02:46:08;7.18;;;2.30;;
13981;SDS011;7065;50.880;5.502;2023-02-27T02:49:10;7.32;;;2.85;;
13981;SDS011;7065;50.880;5.502;2023-02-27T02:51:46;5.55;;;2.40;;
13981;SDS011;7065;50.880;5.502;2023-02-27T02:54:17;4.20;;;2.75;;
13981;SDS011;7065;50.880;5.502;2023-02-27T02:59:21;5.82;;;2.55;;
13981;SDS011;7065;50.880;5.502;2023-02-27T03:02:05;4.15;;;2.20;;
13981;SDS011;7065;50.880;5.502;2023-02-27T03:07:23;7.63;;;2.50;;
13981;SDS011;7065;50.880;5.502;2023-02-27T03:12:26;7.57;;;2.60;;
13981;SDS011;7065;50.880;5.502;2023-02-27T03:14:58;4.03;;;2.63;;
13981;SDS011;7065;50.880;5.502;2023-02-27T03:17:37;5.13;;;2.30;;
13981;SDS011;7065;50.880;5.502;2023-02-27T03:20:21;5.32;;;2.55;;
13981;SDS011;7065;50.880;5.502;2023-02-27T03:22:53;3.88;;;2.50;;
13981;SDS011;7065;50.880;5.502;2023-02-27T03:25:22;5.32;;;2.25;;
13981;SDS011;7065;50.880;5.502;2023-02-27T03:27:55;2.80;;;2.05;;
13981;SDS011;7065;50.880;5.502;2023-02-27T03:32:59;3.20;;;2.30;;
13981;SDS011;7065;50.880;5.502;2023-02-27T03:35:35;3.10;;;2.53;;
13981;SDS011;7065;50.880;5.502;2023-02-27T03:38:37;5.07;;;2.30;;
13981;SDS011;7065;50.880;5.502;2023-02-27T03:44:13;5.93;;;2.40;;
13981;SDS011;7065;50.880;5.502;2023-02-27T03:46:45;3.42;;;2.13;;
13981;SDS011;7065;50.880;5.502;2023-02-27T03:49:11;4.72;;;2.08;;
13981;SDS011;7065;50.880;5.502;2023-02-27T03:51:37;3.03;;;2.30;;
13981;SDS011;7065;50.880;5.502;2023-02-27T03:56:41;5.40;;;1.92;;
13981;SDS011;7065;50.880;5.502;2023-02-27T03:59:10;4.22;;;2.22;;
13981;SDS011;7065;50.880;5.502;2023-02-27T04:01:36;3.88;;;2.10;;
13981;SDS011;7065;50.880;5.502;2023-02-27T04:04:12;4.80;;;2.55;;
13981;SDS011;7065;50.880;5.502;2023-02-27T04:06:40;8.13;;;2.78;;
13981;SDS011;7065;50.880;5.502;2023-02-27T04:20:18;2.92;;;2.20;;
13981;SDS011;7065;50.880;5.502;2023-02-27T04:23:03;6.20;;;2.90;;
13981;SDS011;7065;50.880;5.502;2023-02-27T04:28:26;7.57;;;2.83;;
13981;SDS011;7065;50.880;5.502;2023-02-27T04:33:51;5.18;;;2.97;;
13981;SDS011;7065;50.880;5.502;2023-02-27T04:36:33;6.13;;;3.10;;
13981;SDS011;7065;50.880;5.502;2023-02-27T04:39:05;9.23;;;3.58;;
13981;SDS011;7065;50.880;5.502;2023-02-27T04:41:43;6.15;;;2.97;;
13981;SDS011;7065;50.880;5.502;2023-02-27T04:44:14;6.45;;;2.75;;
13981;SDS011;7065;50.880;5.502;2023-02-27T04:46:42;5.55;;;3.40;;
13981;SDS011;7065;50.880;5.502;2023-02-27T04:49:30;8.32;;;3.05;;
13981;SDS011;7065;50.880;5.502;2023-02-27T04:52:08;4.68;;;3.20;;
13981;SDS011;7065;50.880;5.502;2023-02-27T04:54:51;3.67;;;2.97;;
13981;SDS011;7065;50.880;5.502;2023-02-27T04:57:23;6.63;;;2.65;;
13981;SDS011;7065;50.880;5.502;2023-02-27T04:59:53;6.80;;;3.85;;
13981;SDS011;7065;50.880;5.502;2023-02-27T05:02:28;7.43;;;3.40;;
13981;SDS011;7065;50.880;5.502;2023-02-27T05:05:01;4.28;;;3.20;;
13981;SDS011;7065;50.880;5.502;2023-02-27T05:07:34;6.13;;;3.33;;
13981;SDS011;7065;50.880;5.502;2023-02-27T05:12:58;6.63;;;3.60;;
13981;SDS011;7065;50.880;5.502;2023-02-27T05:15:31;6.07;;;2.95;;
13981;SDS011;7065;50.880;5.502;2023-02-27T05:18:05;8.55;;;3.60;;
13981;SDS011;7065;50.880;5.502;2023-02-27T05:20:38;6.07;;;3.97;;
13981;SDS011;7065;50.880;5.502;2023-02-27T05:23:22;7.88;;;4.50;;
13981;SDS011;7065;50.880;5.502;2023-02-27T05:25:54;11.55;;;4.65;;
13981;SDS011;7065;50.880;5.502;2023-02-27T05:28:37;7.53;;;4.00;;
13981;SDS011;7065;50.880;5.502;2023-02-27T05:32:06;6.55;;;4.05;;
13981;SDS011;7065;50.880;5.502;2023-02-27T05:34:12;9.13;;;4.97;;
13981;SDS011;7065;50.880;5.502;2023-02-27T05:36:46;8.50;;;4.50;;
13981;SDS011;7065;50.880;5.502;2023-02-27T05:39:21;5.03;;;4.20;;
13981;SDS011;7065;50.880;5.502;2023-02-27T05:41:51;6.75;;;4.03;;
13981;SDS011;7065;50.880;5.502;2023-02-27T05:44:22;5.90;;;4.35;;
13981;SDS011;7065;50.880;5.502;2023-02-27T05:47:01;7.18;;;4.50;;
13981;SDS011;7065;50.880;5.502;2023-02-27T05:49:32;6.88;;;4.30;;
13981;SDS011;7065;50.880;5.502;2023-02-27T05:52:03;9.45;;;4.40;;
13981;SDS011;7065;50.880;5.502;2023-02-27T05:54:36;9.48;;;4.55;;
13981;SDS011;7065;50.880;5.502;2023-02-27T05:57:11;6.30;;;4.43;;
13981;SDS011;7065;50.880;5.502;2023-02-27T05:59:47;8.20;;;4.97;;
13981;SDS011;7065;50.880;5.502;2023-02-27T06:02:19;6.38;;;4.43;;
13981;SDS011;7065;50.880;5.502;2023-02-27T06:04:45;5.97;;;4.15;;
13981;SDS011;7065;50.880;5.502;2023-02-27T06:07:12;4.90;;;3.72;;
13981;SDS011;7065;50.880;5.502;2023-02-27T06:09:39;4.38;;;3.55;;
13981;SDS011;7065;50.880;5.502;2023-02-27T06:12:05;6.68;;;4.32;;
13981;SDS011;7065;50.880;5.502;2023-02-27T06:14:31;7.63;;;5.07;;
13981;SDS011;7065;50.880;5.502;2023-02-27T06:16:57;6.55;;;4.15;;
13981;SDS011;7065;50.880;5.502;2023-02-27T06:19:22;5.55;;;4.03;;
13981;SDS011;7065;50.880;5.502;2023-02-27T06:21:48;8.68;;;4.22;;
13981;SDS011;7065;50.880;5.502;2023-02-27T06:24:14;7.55;;;3.78;;
13981;SDS011;7065;50.880;5.502;2023-02-27T06:26:39;9.15;;;5.15;;
13981;SDS011;7065;50.880;5.502;2023-02-27T06:29:05;6.35;;;4.93;;
13981;SDS011;7065;50.880;5.502;2023-02-27T06:31:31;8.27;;;5.50;;
13981;SDS011;7065;50.880;5.502;2023-02-27T06:33:56;8.13;;;5.70;;
13981;SDS011;7065;50.880;5.502;2023-02-27T06:36:22;7.18;;;5.32;;
13981;SDS011;7065;50.880;5.502;2023-02-27T06:38:48;9.60;;;5.63;;
13981;SDS011;7065;50.880;5.502;2023-02-27T06:41:13;8.48;;;6.35;;
13981;SDS011;7065;50.880;5.502;2023-02-27T06:43:39;6.47;;;5.88;;
13981;SDS011;7065;50.880;5.502;2023-02-27T06:46:05;6.53;;;5.60;;
13981;SDS011;7065;50.880;5.502;2023-02-27T06:48:31;10.85;;;6.80;;
13981;SDS011;7065;50.880;5.502;2023-02-27T06:50:57;13.43;;;6.50;;
13981;SDS011;7065;50.880;5.502;2023-02-27T06:53:23;11.57;;;6.50;;
13981;SDS011;7065;50.880;5.502;2023-02-27T06:55:49;14.55;;;6.80;;
13981;SDS011;7065;50.880;5.502;2023-02-27T06:58:16;13.60;;;6.75;;
13981;SDS011;7065;50.880;5.502;2023-02-27T07:00:42;12.02;;;7.03;;
13981;SDS011;7065;50.880;5.502;2023-02-27T07:03:08;8.85;;;6.10;;
13981;SDS011;7065;50.880;5.502;2023-02-27T07:05:34;10.68;;;6.68;;
13981;SDS011;7065;50.880;5.502;2023-02-27T07:08:00;8.35;;;6.50;;
13981;SDS011;7065;50.880;5.502;2023-02-27T07:10:27;23.15;;;7.43;;
13981;SDS011;7065;50.880;5.502;2023-02-27T07:12:53;23.90;;;7.28;;
13981;SDS011;7065;50.880;5.502;2023-02-27T07:15:19;8.05;;;6.10;;
13981;SDS011;7065;50.880;5.502;2023-02-27T07:17:45;159.70;;;23.30;;
13981;SDS011;7065;50.880;5.502;2023-02-27T07:20:10;58.87;;;13.53;;
13981;SDS011;7065;50.880;5.502;2023-02-27T07:22:37;12.32;;;6.85;;
13981;SDS011;7065;50.880;5.502;2023-02-27T07:25:05;9.30;;;6.15;;
13981;SDS011;7065;50.880;5.502;2023-02-27T07:27:31;11.15;;;6.30;;
13981;SDS011;7065;50.880;5.502;2023-02-27T07:29:57;13.57;;;7.65;;
13981;SDS011;7065;50.880;5.502;2023-02-27T07:32:23;11.73;;;6.75;;
13981;SDS011;7065;50.880;5.502;2023-02-27T07:34:48;8.13;;;6.45;;
13981;SDS011;7065;50.880;5.502;2023-02-27T07:37:14;8.93;;;6.60;;
13981;SDS011;7065;50.880;5.502;2023-02-27T07:39:40;8.43;;;6.38;;
13981;SDS011;7065;50.880;5.502;2023-02-27T07:42:06;11.70;;;6.80;;
13981;SDS011;7065;50.880;5.502;2023-02-27T07:44:31;9.32;;;6.35;;
13981;SDS011;7065;50.880;5.502;2023-02-27T07:46:57;9.65;;;6.35;;
13981;SDS011;7065;50.880;5.502;2023-02-27T07:49:23;8.45;;;6.82;;
13981;SDS011;7065;50.880;5.502;2023-02-27T07:51:49;7.95;;;5.88;;
13981;SDS011;7065;50.880;5.502;2023-02-27T07:54:15;9.48;;;5.88;;
13981;SDS011;7065;50.880;5.502;2023-02-27T07:56:41;10.15;;;6.22;;
13981;SDS011;7065;50.880;5.502;2023-02-27T07:59:07;6.97;;;5.80;;
13981;SDS011;7065;50.880;5.502;2023-02-27T08:01:32;8.70;;;6.55;;
13981;SDS011;7065;50.880;5.502;2023-02-27T08:03:59;9.32;;;6.22;;
13981;SDS011;7065;50.880;5.502;2023-02-27T08:06:24;10.70;;;5.82;;
13981;SDS011;7065;50.880;5.502;2023-02-27T08:08:50;6.60;;;5.15;;
13981;SDS011;7065;50.880;5.502;2023-02-27T08:11:16;8.45;;;4.97;;
13981;SDS011;7065;50.880;5.502;2023-02-27T08:13:42;29.67;;;6.65;;
13981;SDS011;7065;50.880;5.502;2023-02-27T08:16:09;10.88;;;5.15;;
13981;SDS011;7065;50.880;5.502;2023-02-27T08:18:35;10.43;;;5.10;;
13981;SDS011;7065;50.880;5.502;2023-02-27T08:21:01;7.53;;;4.85;;
13981;SDS011;7065;50.880;5.502;2023-02-27T08:23:29;7.43;;;4.93;;
13981;SDS011;7065;50.880;5.502;2023-02-27T08:25:55;7.65;;;4.68;;
13981;SDS011;7065;50.880;5.502;2023-02-27T08:28:22;6.88;;;4.90;;
13981;SDS011;7065;50.880;5.502;2023-02-27T08:30:49;4.85;;;4.38;;
13981;SDS011;7065;50.880;5.502;2023-02-27T08:33:15;10.13;;;4.50;;
13981;SDS011;7065;50.880;5.502;2023-02-27T08:35:41;5.20;;;4.38;;
13981;SDS011;7065;50.880;5.502;2023-02-27T08:38:06;7.88;;;4.78;;
13981;SDS011;7065;50.880;5.502;2023-02-27T08:40:32;11.40;;;4.88;;
13981;SDS011;7065;50.880;5.502;2023-02-27T08:42:58;7.55;;;4.60;;
13981;SDS011;7065;50.880;5.502;2023-02-27T08:45:24;6.80;;;4.00;;
13981;SDS011;7065;50.880;5.502;2023-02-27T08:47:50;6.40;;;4.10;;
13981;SDS011;7065;50.880;5.502;2023-02-27T08:50:15;6.50;;;4.40;;
13981;SDS011;7065;50.880;5.502;2023-02-27T08:52:41;5.18;;;3.60;;
13981;SDS011;7065;50.880;5.502;2023-02-27T08:55:07;5.97;;;4.03;;
13981;SDS011;7065;50.880;5.502;2023-02-27T08:57:34;10.45;;;4.65;;
13981;SDS011;7065;50.880;5.502;2023-02-27T09:00:00;6.65;;;4.03;;
13981;SDS011;7065;50.880;5.502;2023-02-27T09:02:26;11.02;;;4.00;;
13981;SDS011;7065;50.880;5.502;2023-02-27T09:04:52;19.65;;;4.93;;
13981;SDS011;7065;50.880;5.502;2023-02-27T09:07:18;5.75;;;3.40;;
13981;SDS011;7065;50.880;5.502;2023-02-27T09:09:44;6.72;;;3.70;;
13981;SDS011;7065;50.880;5.502;2023-02-27T09:12:10;6.18;;;3.40;;
13981;SDS011;7065;50.880;5.502;2023-02-27T09:14:38;6.45;;;3.25;;
13981;SDS011;7065;50.880;5.502;2023-02-27T09:17:04;6.63;;;3.20;;
13981;SDS011;7065;50.880;5.502;2023-02-27T09:19:30;4.32;;;2.92;;
13981;SDS011;7065;50.880;5.502;2023-02-27T09:21:56;5.10;;;2.85;;
13981;SDS011;7065;50.880;5.502;2023-02-27T09:24:22;4.53;;;2.70;;
13981;SDS011;7065;50.880;5.502;2023-02-27T09:26:48;12.88;;;3.28;;
13981;SDS011;7065;50.880;5.502;2023-02-27T09:29:14;2.80;;;2.33;;
13981;SDS011;7065;50.880;5.502;2023-02-27T09:31:40;5.10;;;2.85;;
13981;SDS011;7065;50.880;5.502;2023-02-27T09:34:06;12.30;;;3.15;;
13981;SDS011;7065;50.880;5.502;2023-02-27T09:36:32;16.92;;;3.70;;
13981;SDS011;7065;50.880;5.502;2023-02-27T09:38:58;4.22;;;3.13;;
13981;SDS011;7065;50.880;5.502;2023-02-27T09:44:31;5.55;;;3.08;;
13981;SDS011;7065;50.880;5.502;2023-02-27T09:47:02;7.75;;;3.20;;
13981;SDS011;7065;50.880;5.502;2023-02-27T09:49:32;6.13;;;3.45;;
13981;SDS011;7065;50.880;5.502;2023-02-27T09:52:05;49.92;;;7.38;;
13981;SDS011;7065;50.880;5.502;2023-02-27T09:54:37;3.72;;;2.28;;
13981;SDS011;7065;50.880;5.502;2023-02-27T09:57:03;4.63;;;2.50;;
13981;SDS011;7065;50.880;5.502;2023-02-27T10:15:59;3.97;;;1.98;;
13981;SDS011;7065;50.880;5.502;2023-02-27T10:18:29;4.05;;;1.40;;
13981;SDS011;7065;50.880;5.502;2023-02-27T10:20:59;6.70;;;1.90;;
13981;SDS011;7065;50.880;5.502;2023-02-27T10:23:35;2.03;;;1.63;;
13981;SDS011;7065;50.880;5.502;2023-02-27T10:26:23;2.92;;;1.80;;
13981;SDS011;7065;50.880;5.502;2023-02-27T10:28:53;3.25;;;2.00;;
13981;SDS011;7065;50.880;5.502;2023-02-27T10:31:21;5.07;;;2.42;;
13981;SDS011;7065;50.880;5.502;2023-02-27T10:33:55;4.72;;;2.10;;
13981;SDS011;7065;50.880;5.502;2023-02-27T10:36:22;3.17;;;2.28;;
13981;SDS011;7065;50.880;5.502;2023-02-27T10:38:49;7.05;;;3.13;;
13981;SDS011;7065;50.880;5.502;2023-02-27T10:41:24;3.13;;;2.10;;
13981;SDS011;7065;50.880;5.502;2023-02-27T10:43:55;5.40;;;2.88;;
13981;SDS011;7065;50.880;5.502;2023-02-27T10:46:27;4.43;;;2.35;;
13981;SDS011;7065;50.880;5.502;2023-02-27T10:48:57;43.15;;;5.22;;
13981;SDS011;7065;50.880;5.502;2023-02-27T10:51:30;4.22;;;2.30;;
13981;SDS011;7065;50.880;5.502;2023-02-27T10:57:01;13.20;;;2.58;;
13981;SDS011;7065;50.880;5.502;2023-02-27T10:59:39;3.60;;;1.90;;
13981;SDS011;7065;50.880;5.502;2023-02-27T11:02:18;3.95;;;2.53;;
13981;SDS011;7065;50.880;5.502;2023-02-27T11:05:06;3.90;;;2.00;;
13981;SDS011;7065;50.880;5.502;2023-02-27T11:07:49;6.72;;;2.20;;
13981;SDS011;7065;50.880;5.502;2023-02-27T11:10:17;4.18;;;2.47;;
13981;SDS011;7065;50.880;5.502;2023-02-27T11:12:58;2.00;;;1.77;;
13981;SDS011;7065;50.880;5.502;2023-02-27T11:15:30;3.95;;;2.10;;
13981;SDS011;7065;50.880;5.502;2023-02-27T11:18:20;3.38;;;2.45;;
13981;SDS011;7065;50.880;5.502;2023-02-27T11:20:50;3.22;;;2.30;;
13981;SDS011;7065;50.880;5.502;2023-02-27T11:23:17;3.78;;;1.75;;
13981;SDS011;7065;50.880;5.502;2023-02-27T11:25:45;3.75;;;1.67;;
13981;SDS011;7065;50.880;5.502;2023-02-27T11:33:52;5.55;;;2.28;;
13981;SDS011;7065;50.880;5.502;2023-02-27T11:36:36;1.55;;;1.30;;
13981;SDS011;7065;50.880;5.502;2023-02-27T11:41:55;4.57;;;1.60;;
13981;SDS011;7065;50.880;5.502;2023-02-27T11:44:29;7.78;;;2.20;;
13981;SDS011;7065;50.880;5.502;2023-02-27T11:47:12;3.15;;;1.70;;
13981;SDS011;7065;50.880;5.502;2023-02-27T11:49:45;5.32;;;1.30;;
13981;SDS011;7065;50.880;5.502;2023-02-27T11:52:28;2.60;;;1.63;;
13981;SDS011;7065;50.880;5.502;2023-02-27T11:55:05;8.13;;;2.25;;
13981;SDS011;7065;50.880;5.502;2023-02-27T11:57:40;3.70;;;1.95;;
13981;SDS011;7065;50.880;5.502;2023-02-27T12:00:16;12.50;;;2.78;;
13981;SDS011;7065;50.880;5.502;2023-02-27T12:08:27;2.90;;;2.15;;
13981;SDS011;7065;50.880;5.502;2023-02-27T12:11:04;22.30;;;4.47;;
13981;SDS011;7065;50.880;5.502;2023-02-27T12:13:37;5.97;;;2.08;;
13981;SDS011;7065;50.880;5.502;2023-02-27T12:16:08;36.05;;;6.75;;
13981;SDS011;7065;50.880;5.502;2023-02-27T12:18:46;12.02;;;3.88;;
13981;SDS011;7065;50.880;5.502;2023-02-27T12:21:27;3.50;;;2.30;;
13981;SDS011;7065;50.880;5.502;2023-02-27T12:27:02;4.88;;;2.55;;
13981;SDS011;7065;50.880;5.502;2023-02-27T12:29:42;21.88;;;3.80;;
13981;SDS011;7065;50.880;5.502;2023-02-27T12:34:58;3.67;;;3.00;;
13981;SDS011;7065;50.880;5.502;2023-02-27T12:37:29;6.90;;;3.53;;
13981;SDS011;7065;50.880;5.502;2023-02-27T12:39:59;4.57;;;3.95;;
13981;SDS011;7065;50.880;5.502;2023-02-27T12:42:34;3.55;;;3.30;;
13981;SDS011;7065;50.880;5.502;2023-02-27T12:50:50;6.00;;;4.15;;
13981;SDS011;7065;50.880;5.502;2023-02-27T12:55:51;23.63;;;6.95;;
13981;SDS011;7065;50.880;5.502;2023-02-27T13:06:43;9.95;;;6.68;;
13981;SDS011;7065;50.880;5.502;2023-02-27T13:16:58;5.28;;;4.78;;
13981;SDS011;7065;50.880;5.502;2023-02-27T13:19:38;7.00;;;5.63;;
13981;SDS011;7065;50.880;5.502;2023-02-27T13:22:25;7.63;;;4.55;;
13981;SDS011;7065;50.880;5.502;2023-02-27T13:24:57;8.48;;;4.60;;
13981;SDS011;7065;50.880;5.502;2023-02-27T13:32:38;7.82;;;4.22;;
13981;SDS011;7065;50.880;5.502;2023-02-27T13:35:27;9.27;;;5.55;;
13981;SDS011;7065;50.880;5.502;2023-02-27T13:43:44;4.32;;;3.85;;
13981;SDS011;7065;50.880;5.502;2023-02-27T13:46:24;5.40;;;4.38;;
13981;SDS011;7065;50.880;5.502;2023-02-27T13:56:39;31.58;;;5.68;;
13981;SDS011;7065;50.880;5.502;2023-02-27T13:59:09;6.38;;;3.95;;
13981;SDS011;7065;50.880;5.502;2023-02-27T14:01:43;6.78;;;3.83;;
13981;SDS011;7065;50.880;5.502;2023-02-27T14:04:20;10.07;;;4.05;;
13981;SDS011;7065;50.880;5.502;2023-02-27T14:06:49;4.50;;;3.88;;
13981;SDS011;7065;50.880;5.502;2023-02-27T14:09:19;7.22;;;3.90;;
13981;SDS011;7065;50.880;5.502;2023-02-27T14:11:55;4.20;;;2.90;;
13981;SDS011;7065;50.880;5.502;2023-02-27T14:14:57;4.57;;;3.15;;
13981;SDS011;7065;50.880;5.502;2023-02-27T14:20:04;10.95;;;4.35;;
13981;SDS011;7065;50.880;5.502;2023-02-27T14:25:52;9.05;;;3.40;;
13981;SDS011;7065;50.880;5.502;2023-02-27T14:28:21;14.75;;;3.00;;
13981;SDS011;7065;50.880;5.502;2023-02-27T14:36:14;2.78;;;2.42;;
13981;SDS011;7065;50.880;5.502;2023-02-27T14:38:46;7.88;;;3.05;;
13981;SDS011;7065;50.880;5.502;2023-02-27T14:43:59;8.50;;;3.22;;
13981;SDS011;7065;50.880;5.502;2023-02-27T14:51:50;2.85;;;2.55;;
13981;SDS011;7065;50.880;5.502;2023-02-27T14:54:17;4.82;;;2.58;;
13981;SDS011;7065;50.880;5.502;2023-02-27T14:56:54;3.05;;;2.42;;
13981;SDS011;7065;50.880;5.502;2023-02-27T14:59:25;5.50;;;2.83;;
13981;SDS011;7065;50.880;5.502;2023-02-27T15:02:08;6.35;;;2.33;;
13981;SDS011;7065;50.880;5.502;2023-02-27T15:04:46;4.70;;;2.80;;
13981;SDS011;7065;50.880;5.502;2023-02-27T15:07:18;3.13;;;2.38;;
13981;SDS011;7065;50.880;5.502;2023-02-27T15:09:48;3.45;;;2.42;;
13981;SDS011;7065;50.880;5.502;2023-02-27T15:12:18;4.80;;;2.70;;
13981;SDS011;7065;50.880;5.502;2023-02-27T15:14:48;3.95;;;2.63;;
13981;SDS011;7065;50.880;5.502;2023-02-27T15:17:23;3.33;;;2.50;;
13981;SDS011;7065;50.880;5.502;2023-02-27T15:19:51;4.22;;;2.50;;
13981;SDS011;7065;50.880;5.502;2023-02-27T15:22:22;2.85;;;2.60;;
13981;SDS011;7065;50.880;5.502;2023-02-27T15:24:53;4.40;;;2.60;;
13981;SDS011;7065;50.880;5.502;2023-02-27T15:27:21;5.32;;;3.00;;
13981;SDS011;7065;50.880;5.502;2023-02-27T15:29:49;3.35;;;2.63;;
13981;SDS011;7065;50.880;5.502;2023-02-27T15:34:55;3.10;;;2.10;;
13981;SDS011;7065;50.880;5.502;2023-02-27T15:37:30;3.83;;;2.65;;
13981;SDS011;7065;50.880;5.502;2023-02-27T15:39:58;5.65;;;2.78;;
13981;SDS011;7065;50.880;5.502;2023-02-27T15:42:29;6.07;;;2.78;;
13981;SDS011;7065;50.880;5.502;2023-02-27T15:44:59;4.53;;;2.60;;
13981;SDS011;7065;50.880;5.502;2023-02-27T15:47:27;3.50;;;2.20;;
13981;SDS011;7065;50.880;5.502;2023-02-27T15:49:59;3.28;;;2.67;;
13981;SDS011;7065;50.880;5.502;2023-02-27T15:55:40;5.28;;;2.80;;
13981;SDS011;7065;50.880;5.502;2023-02-27T15:58:29;4.30;;;2.50;;
13981;SDS011;7065;50.880;5.502;2023-02-27T16:01:01;2.40;;;2.20;;
13981;SDS011;7065;50.880;5.502;2023-02-27T16:03:40;7.57;;;2.50;;
13981;SDS011;7065;50.880;5.502;2023-02-27T16:06:14;5.25;;;2.22;;
13981;SDS011;7065;50.880;5.502;2023-02-27T16:08:50;4.20;;;2.28;;
13981;SDS011;7065;50.880;5.502;2023-02-27T16:11:25;4.03;;;2.40;;
13981;SDS011;7065;50.880;5.502;2023-02-27T16:13:53;3.63;;;1.92;;
13981;SDS011;7065;50.880;5.502;2023-02-27T16:16:30;6.53;;;2.63;;
13981;SDS011;7065;50.880;5.502;2023-02-27T16:19:45;2.78;;;2.00;;
13981;SDS011;7065;50.880;5.502;2023-02-27T16:24:37;4.00;;;2.63;;
13981;SDS011;7065;50.880;5.502;2023-02-27T16:27:03;5.32;;;2.25;;
13981;SDS011;7065;50.880;5.502;2023-02-27T16:29:33;4.32;;;2.28;;
13981;SDS011;7065;50.880;5.502;2023-02-27T16:32:00;4.05;;;2.35;;
13981;SDS011;7065;50.880;5.502;2023-02-27T16:37:17;5.25;;;2.50;;
13981;SDS011;7065;50.880;5.502;2023-02-27T16:39:45;3.83;;;2.22;;
13981;SDS011;7065;50.880;5.502;2023-02-27T16:42:14;9.48;;;3.05;;
13981;SDS011;7065;50.880;5.502;2023-02-27T16:44:41;5.40;;;2.38;;
13981;SDS011;7065;50.880;5.502;2023-02-27T16:47:08;2.75;;;2.00;;
13981;SDS011;7065;50.880;5.502;2023-02-27T16:49:34;3.10;;;2.35;;
13981;SDS011;7065;50.880;5.502;2023-02-27T16:51:59;4.28;;;2.30;;
13981;SDS011;7065;50.880;5.502;2023-02-27T16:54:27;4.60;;;2.22;;
13981;SDS011;7065;50.880;5.502;2023-02-27T16:56:53;2.78;;;2.08;;
13981;SDS011;7065;50.880;5.502;2023-02-27T17:01:58;8.13;;;2.35;;
13981;SDS011;7065;50.880;5.502;2023-02-27T17:04:25;4.28;;;2.30;;
13981;SDS011;7065;50.880;5.502;2023-02-27T17:06:52;4.05;;;2.78;;
13981;SDS011;7065;50.880;5.502;2023-02-27T17:09:19;4.30;;;2.25;;
13981;SDS011;7065;50.880;5.502;2023-02-27T17:11:45;2.75;;;2.00;;
13981;SDS011;7065;50.880;5.502;2023-02-27T17:14:10;3.40;;;2.10;;
13981;SDS011;7065;50.880;5.502;2023-02-27T17:16:36;3.45;;;2.40;;
13981;SDS011;7065;50.880;5.502;2023-02-27T17:19:02;9.40;;;3.15;;
13981;SDS011;7065;50.880;5.502;2023-02-27T17:21:28;3.30;;;2.00;;
13981;SDS011;7065;50.880;5.502;2023-02-27T17:23:54;2.92;;;2.15;;
13981;SDS011;7065;50.880;5.502;2023-02-27T17:26:20;4.00;;;2.67;;
13981;SDS011;7065;50.880;5.502;2023-02-27T17:28:46;5.82;;;2.28;;
13981;SDS011;7065;50.880;5.502;2023-02-27T17:31:12;4.88;;;2.45;;
13981;SDS011;7065;50.880;5.502;2023-02-27T17:33:39;3.97;;;2.55;;
13981;SDS011;7065;50.880;5.502;2023-02-27T17:36:07;6.78;;;2.67;;
13981;SDS011;7065;50.880;5.502;2023-02-27T17:38:34;5.88;;;4.07;;
13981;SDS011;7065;50.880;5.502;2023-02-27T17:41:11;6.05;;;3.47;;
13981;SDS011;7065;50.880;5.502;2023-02-27T17:43:37;16.02;;;4.13;;
13981;SDS011;7065;50.880;5.502;2023-02-27T17:46:05;3.85;;;3.13;;
13981;SDS011;7065;50.880;5.502;2023-02-27T17:48:32;5.30;;;3.20;;
13981;SDS011;7065;50.880;5.502;2023-02-27T17:51:06;4.22;;;3.22;;
13981;SDS011;7065;50.880;5.502;2023-02-27T17:53:34;6.18;;;4.05;;
13981;SDS011;7065;50.880;5.502;2023-02-27T17:56:00;6.50;;;3.17;;
13981;SDS011;7065;50.880;5.502;2023-02-27T17:58:26;5.70;;;3.78;;
13981;SDS011;7065;50.880;5.502;2023-02-27T18:00:51;4.05;;;3.65;;
13981;SDS011;7065;50.880;5.502;2023-02-27T18:03:17;6.10;;;3.25;;
13981;SDS011;7065;50.880;5.502;2023-02-27T18:05:47;4.68;;;4.10;;
13981;SDS011;7065;50.880;5.502;2023-02-27T18:08:15;8.80;;;3.47;;
13981;SDS011;7065;50.880;5.502;2023-02-27T18:10:45;3.80;;;3.50;;
13981;SDS011;7065;50.880;5.502;2023-02-27T18:13:15;5.53;;;3.80;;
13981;SDS011;7065;50.880;5.502;2023-02-27T18:15:42;5.03;;;4.63;;
13981;SDS011;7065;50.880;5.502;2023-02-27T18:18:09;7.32;;;5.13;;